Time;durP1;ratioP1;P1;durP2;ratioP2;P2;SDS_P1;SDS_P2;PMS_P1;PMS_P2;Temp;Humidity;BMP_temperature;BMP_pressure;BME280_temperature;BME280_humidity;BME280_pressure;Samples;Min_cycle;Max_cycle;Signal;HPM_P1;HPM_P2
2022/12/10 00:01:47;;;;;;;19.63;16.30;;;7.50;1.00;;;;;;5033845;28;20025;-63
2022/12/10 00:04:13;;;;;;;19.30;16.07;;;7.20;1.00;;;;;;5023967;28;20044;-63
2022/12/10 00:06:40;;;;;;;21.00;16.03;;;7.40;1.00;;;;;;5029818;28;20546;-63
2022/12/10 00:09:08;;;;;;;20.37;16.63;;;7.30;1.00;;;;;;5033500;28;20029;-63
2022/12/10 00:11:34;;;;;;;20.87;15.93;;;7.60;1.00;;;;;;5033550;28;20567;-63
2022/12/10 00:14:00;;;;;;;22.00;17.00;;;7.50;1.00;;;;;;5033460;28;20179;-63
2022/12/10 00:16:27;;;;;;;23.27;17.27;;;7.50;1.00;;;;;;5033756;28;20022;-63
2022/12/10 00:18:54;;;;;;;21.73;17.20;;;7.40;1.00;;;;;;5029693;28;20034;-63
2022/12/10 00:21:22;;;;;;;21.33;17.47;;;7.30;1.00;;;;;;5024737;28;20025;-63
2022/12/10 00:23:48;;;;;;;21.20;16.30;;;7.50;1.00;;;;;;5024400;28;20124;-63
2022/12/10 00:26:15;;;;;;;21.70;17.70;;;7.50;1.00;;;;;;5018926;28;20065;-63
2022/12/10 00:28:42;;;;;;;21.87;17.10;;;7.50;1.00;;;;;;5033168;28;20029;-63
2022/12/10 00:31:19;;;;;;;20.77;16.80;;;7.60;1.00;;;;;;5033154;28;20122;-63
2022/12/10 00:33:45;;;;;;;20.73;17.23;;;7.50;1.00;;;;;;5018825;28;20552;-63
2022/12/10 00:36:16;;;;;;;24.43;17.73;;;7.60;1.00;;;;;;5033074;28;20033;-63
2022/12/10 00:38:43;;;;;;;21.97;16.77;;;7.60;1.00;;;;;;5033015;28;20108;-63
2022/12/10 00:41:10;;;;;;;23.20;18.43;;;7.50;1.00;;;;;;5033031;28;20084;-63
2022/12/10 00:43:36;;;;;;;22.77;18.43;;;7.40;1.00;;;;;;5032777;28;20036;-63
2022/12/10 00:46:02;;;;;;;23.43;18.77;;;7.60;1.00;;;;;;5031537;28;20033;-63
2022/12/10 00:48:27;;;;;;;21.77;17.67;;;7.50;1.00;;;;;;5029265;28;20030;-63
2022/12/10 00:51:03;;;;;;;24.80;19.07;;;7.40;1.00;;;;;;5030704;28;20116;-63
2022/12/10 00:53:31;;;;;;;24.23;18.37;;;7.50;1.00;;;;;;5032441;28;20091;-63
2022/12/10 00:55:58;;;;;;;20.53;17.33;;;7.50;1.00;;;;;;5031368;28;20379;-63
2022/12/10 00:58:26;;;;;;;25.70;18.93;;;7.60;1.00;;;;;;5032693;28;20033;-63
2022/12/10 01:00:51;;;;;;;23.57;17.87;;;7.70;1.00;;;;;;5032572;28;20060;-63
2022/12/10 01:03:17;;;;;;;24.10;18.70;;;7.60;1.00;;;;;;5028102;28;20101;-63
2022/12/10 01:05:43;;;;;;;25.57;19.73;;;7.70;1.00;;;;;;5026357;28;20036;-63
2022/12/10 01:08:08;;;;;;;26.17;19.83;;;7.50;1.00;;;;;;5032465;28;20013;-63
2022/12/10 01:10:34;;;;;;;27.93;20.50;;;7.40;1.00;;;;;;5022919;28;20026;-63
2022/12/10 01:13:00;;;;;;;23.53;18.83;;;7.50;1.00;;;;;;5024069;28;20040;-63
2022/12/10 01:15:26;;;;;;;23.80;18.13;;;7.50;1.00;;;;;;5022157;28;20033;-63
2022/12/10 01:17:51;;;;;;;24.10;19.00;;;7.40;1.00;;;;;;5030809;28;20030;-63
2022/12/10 01:20:17;;;;;;;23.93;19.13;;;7.60;1.00;;;;;;5032330;28;20037;-63
2022/12/10 01:22:42;;;;;;;24.00;18.70;;;7.50;1.00;;;;;;5032247;28;20356;-63
2022/12/10 01:25:08;;;;;;;22.37;17.83;;;7.30;1.00;;;;;;5031987;28;20057;-63
2022/12/10 01:27:34;;;;;;;24.37;19.53;;;7.50;1.00;;;;;;5010962;28;20021;-62
2022/12/10 01:29:59;;;;;;;25.03;19.30;;;7.50;1.00;;;;;;5007060;28;20037;-63
2022/12/10 01:32:25;;;;;;;23.50;18.90;;;7.70;1.00;;;;;;5011132;28;20072;-63
2022/12/10 01:34:50;;;;;;;24.17;19.10;;;7.70;1.00;;;;;;5012117;28;20423;-63
2022/12/10 01:37:16;;;;;;;27.00;20.87;;;7.70;1.00;;;;;;5012064;28;20034;-63
2022/12/10 01:39:42;;;;;;;24.03;18.83;;;7.50;1.00;;;;;;5012048;28;20136;-63
2022/12/10 01:42:11;;;;;;;25.27;20.30;;;7.30;1.00;;;;;;5012158;28;20368;-63
2022/12/10 01:44:42;;;;;;;25.70;20.30;;;7.40;1.00;;;;;;5019040;28;20053;-63
2022/12/10 01:47:09;;;;;;;27.27;20.07;;;7.50;1.00;;;;;;5031895;28;20029;-63
2022/12/10 01:49:37;;;;;;;29.30;21.87;;;7.30;1.00;;;;;;5025985;28;20046;-63
2022/12/10 01:52:05;;;;;;;29.47;21.87;;;7.20;1.00;;;;;;5012168;28;20076;-63
2022/12/10 01:54:43;;;;;;;29.40;22.50;;;7.10;1.00;;;;;;5014211;28;20045;-63
2022/12/10 01:57:14;;;;;;;31.37;22.60;;;7.30;1.00;;;;;;5031833;28;20096;-63
2022/12/10 01:59:41;;;;;;;29.63;22.03;;;7.40;1.00;;;;;;5023327;28;20425;-63
2022/12/10 02:02:31;;;;;;;28.60;21.30;;;7.50;1.00;;;;;;5017395;28;20026;-63
2022/12/10 02:05:15;;;;;;;30.37;22.27;;;7.40;1.00;;;;;;5031638;28;20471;-63
2022/12/10 02:07:53;;;;;;;30.87;22.87;;;7.50;1.00;;;;;;5017386;28;20084;-63
2022/12/10 02:10:55;;;;;;;28.53;21.07;;;7.30;1.00;;;;;;5011927;28;20539;-63
2022/12/10 02:13:33;;;;;;;27.27;21.97;;;7.40;1.00;;;;;;5030855;28;20037;-62
2022/12/10 02:16:10;;;;;;;30.30;21.63;;;7.40;1.00;;;;;;5030227;28;20119;-62
2022/12/10 02:18:39;;;;;;;28.60;22.17;;;7.40;1.00;;;;;;5031691;28;20092;-62
2022/12/10 02:21:20;;;;;;;30.30;22.97;;;7.30;1.00;;;;;;5030752;28;20029;-63
2022/12/10 02:23:53;;;;;;;29.03;21.80;;;7.40;1.00;;;;;;5007508;28;20132;-62
2022/12/10 02:26:22;;;;;;;28.53;21.87;;;7.30;1.00;;;;;;5029744;28;20036;-62
2022/12/10 02:29:09;;;;;;;32.40;24.30;;;7.30;1.00;;;;;;5010248;28;20095;-63
2022/12/10 02:31:38;;;;;;;31.67;22.93;;;7.20;1.00;;;;;;5030479;28;20029;-62
2022/12/10 02:34:07;;;;;;;31.13;22.77;;;7.20;1.00;;;;;;5029282;28;20041;-62
2022/12/10 02:36:37;;;;;;;32.53;24.47;;;7.30;1.00;;;;;;5016312;28;20109;-62
2022/12/10 02:39:07;;;;;;;31.00;22.47;;;7.30;1.00;;;;;;5030702;28;20376;-62
2022/12/10 02:41:37;;;;;;;33.43;24.10;;;7.10;1.00;;;;;;5018567;28;20026;-62
2022/12/10 02:44:07;;;;;;;33.73;24.50;;;7.30;1.00;;;;;;5010878;28;20110;-62
2022/12/10 02:46:36;;;;;;;34.17;24.70;;;7.20;1.00;;;;;;5022219;28;20104;-62
2022/12/10 02:49:04;;;;;;;33.00;23.57;;;7.30;1.00;;;;;;5029437;28;20087;-63
2022/12/10 02:51:29;;;;;;;32.80;23.50;;;7.30;1.00;;;;;;5020576;28;20030;-62
2022/12/10 02:54:35;;;;;;;32.07;23.47;;;7.40;1.00;;;;;;5030753;28;20045;-62
2022/12/10 02:57:23;;;;;;;38.80;26.88;;;7.20;1.00;;;;;;5026125;28;20065;-62
2022/12/10 02:59:58;;;;;;;34.60;25.47;;;7.20;1.00;;;;;;5023896;28;20048;-63
2022/12/10 03:02:33;;;;;;;36.00;25.17;;;7.30;1.00;;;;;;5034859;28;20021;-62
2022/12/10 03:05:13;;;;;;;37.53;25.60;;;7.10;1.00;;;;;;5025168;28;20033;-62
2022/12/10 03:07:46;;;;;;;35.73;24.30;;;7.30;1.00;;;;;;5018651;28;20023;-63
2022/12/10 03:10:26;;;;;;;38.87;26.53;;;7.00;1.00;;;;;;5034721;28;20105;-62
2022/12/10 03:12:59;;;;;;;35.53;25.97;;;7.20;1.00;;;;;;5034608;28;20018;-62
2022/12/10 03:15:28;;;;;;;39.80;27.17;;;7.20;1.00;;;;;;5034801;28;20065;-62
2022/12/10 03:17:56;;;;;;;38.00;26.37;;;7.20;1.00;;;;;;5021167;28;20044;-62
2022/12/10 03:20:24;;;;;;;37.07;26.20;;;7.20;1.00;;;;;;5029137;28;20430;-62
2022/12/10 03:22:50;;;;;;;41.30;27.63;;;7.30;1.00;;;;;;5013458;28;20018;-63
2022/12/10 03:25:21;;;;;;;39.20;27.27;;;7.40;1.00;;;;;;5019689;28;20030;-62
2022/12/10 03:27:49;;;;;;;43.67;27.17;;;7.20;1.00;;;;;;5022690;28;20037;-61
2022/12/10 03:30:15;;;;;;;38.97;26.83;;;7.20;1.00;;;;;;5017243;28;20026;-62
2022/12/10 03:32:45;;;;;;;39.33;28.23;;;7.20;1.00;;;;;;5029781;28;20095;-61
2022/12/10 03:35:14;;;;;;;39.93;27.83;;;7.30;1.00;;;;;;5016278;28;20399;-62
2022/12/10 03:37:41;;;;;;;40.83;28.47;;;7.40;1.00;;;;;;5032526;28;20063;-63
2022/12/10 03:40:08;;;;;;;37.30;26.73;;;7.30;1.00;;;;;;5022146;28;20021;-63
2022/12/10 03:42:35;;;;;;;41.10;26.93;;;7.40;1.00;;;;;;5021244;28;20022;-63
2022/12/10 03:45:01;;;;;;;38.53;26.73;;;7.30;1.00;;;;;;5006893;28;20497;-63
2022/12/10 03:47:27;;;;;;;37.70;26.47;;;7.40;1.00;;;;;;5032769;28;20021;-63
2022/12/10 03:49:52;;;;;;;44.50;29.13;;;7.50;1.00;;;;;;5029768;28;20026;-63
2022/12/10 03:52:18;;;;;;;40.07;26.30;;;7.30;1.00;;;;;;5022882;28;20317;-63
2022/12/10 03:54:43;;;;;;;41.87;27.30;;;7.30;1.00;;;;;;5032010;28;20507;-63
2022/12/10 03:57:09;;;;;;;40.27;26.87;;;7.30;1.00;;;;;;5021251;28;20029;-63
2022/12/10 03:59:35;;;;;;;42.63;27.30;;;7.30;1.00;;;;;;5033884;28;20391;-63
2022/12/10 04:02:00;;;;;;;42.30;28.07;;;7.10;1.00;;;;;;5032378;28;20053;-63
2022/12/10 04:04:26;;;;;;;40.77;26.40;;;7.20;1.00;;;;;;5019960;28;20037;-63
2022/12/10 04:06:52;;;;;;;44.50;27.97;;;7.00;1.00;;;;;;5028934;28;20032;-63
2022/12/10 04:09:17;;;;;;;41.23;26.53;;;7.20;1.00;;;;;;5031761;28;20522;-63
2022/12/10 04:11:44;;;;;;;43.23;28.70;;;7.20;1.00;;;;;;5024927;28;20057;-63
2022/12/10 04:16:55;;;;;;;38.90;26.43;;;7.40;1.00;;;;;;5033865;28;20037;-63
2022/12/10 04:19:21;;;;;;;44.50;27.57;;;7.20;1.00;;;;;;5033263;28;20511;-63
2022/12/10 04:27:25;;;;;;;43.20;27.50;;;7.10;1.00;;;;;;5033605;28;20095;-63
2022/12/10 04:29:52;;;;;;;40.77;26.20;;;6.80;1.00;;;;;;5023694;28;20026;-63
2022/12/10 04:35:39;;;;;;;42.13;26.73;;;7.00;1.00;;;;;;5007493;28;20068;-63
2022/12/10 04:38:05;;;;;;;41.00;25.37;;;7.10;1.00;;;;;;5012392;28;20479;-63
2022/12/10 04:40:30;;;;;;;45.67;27.27;;;7.20;1.00;;;;;;5033174;28;20079;-63
2022/12/10 04:42:56;;;;;;;45.03;28.23;;;7.10;1.00;;;;;;5031651;28;20432;-63
2022/12/10 04:45:22;;;;;;;47.20;29.23;;;7.20;1.00;;;;;;5014780;28;20102;-63
2022/12/10 04:47:47;;;;;;;42.53;28.60;;;7.30;1.00;;;;;;5056569;28;20026;-63
2022/12/10 04:50:13;;;;;;;42.83;28.20;;;7.30;1.00;;;;;;5022201;28;20529;-63
2022/12/10 04:52:38;;;;;;;41.43;27.37;;;7.30;1.00;;;;;;5032814;28;20044;-63
2022/12/10 04:55:05;;;;;;;46.87;28.10;;;7.10;1.00;;;;;;5033106;28;20092;-63
2022/12/10 04:57:31;;;;;;;46.10;29.43;;;6.90;1.00;;;;;;5032898;28;20076;-62
2022/12/10 04:59:56;;;;;;;49.67;29.53;;;7.00;1.00;;;;;;5032674;28;20025;-63
2022/12/10 05:02:22;;;;;;;46.17;29.37;;;7.00;1.00;;;;;;5032577;28;20021;-63
2022/12/10 05:04:50;;;;;;;46.13;29.13;;;7.10;1.00;;;;;;5019159;28;20036;-63
2022/12/10 05:07:16;;;;;;;52.90;30.83;;;6.90;1.00;;;;;;5031245;28;20437;-62
2022/12/10 05:09:45;;;;;;;48.10;29.63;;;6.80;1.00;;;;;;5032451;28;20030;-62
2022/12/10 05:12:10;;;;;;;52.03;30.47;;;7.00;1.00;;;;;;5032567;28;20036;-63
2022/12/10 05:14:36;;;;;;;52.47;31.80;;;7.00;1.00;;;;;;5032488;28;20418;-63
2022/12/10 05:17:02;;;;;;;51.60;31.57;;;6.90;1.00;;;;;;5032543;28;20034;-63
2022/12/10 05:19:27;;;;;;;49.97;31.17;;;7.00;1.00;;;;;;5027213;28;20068;-63
2022/12/10 05:24:37;;;;;;;49.43;30.90;;;6.90;1.00;;;;;;5032322;28;20040;-63
2022/12/10 05:27:04;;;;;;;51.07;31.67;;;6.80;1.00;;;;;;5030608;28;20415;-63
2022/12/10 05:29:31;;;;;;;50.77;29.67;;;6.70;1.00;;;;;;5022460;28;20034;-63
2022/12/10 05:31:57;;;;;;;52.63;31.10;;;6.80;1.00;;;;;;5025552;28;20049;-63
2022/12/10 05:34:22;;;;;;;52.63;31.63;;;6.80;1.00;;;;;;5031919;28;20059;-63
2022/12/10 05:36:48;;;;;;;53.80;31.03;;;6.90;1.00;;;;;;5032096;28;20030;-63
2022/12/10 05:39:14;;;;;;;49.67;30.03;;;6.90;1.00;;;;;;5026551;28;20029;-62
2022/12/10 05:41:40;;;;;;;54.10;29.97;;;6.90;1.00;;;;;;5032027;28;20108;-63
2022/12/10 05:44:07;;;;;;;52.33;29.93;;;6.90;1.00;;;;;;5031988;28;20125;-63
2022/12/10 05:46:34;;;;;;;56.20;31.17;;;6.80;1.00;;;;;;5032207;28;20021;-63
2022/12/10 05:49:01;;;;;;;56.97;31.37;;;7.00;1.00;;;;;;5032020;28;20475;-63
2022/12/10 05:51:30;;;;;;;60.63;30.73;;;6.90;1.00;;;;;;5032140;28;20013;-63
2022/12/10 05:53:57;;;;;;;58.50;32.10;;;7.00;1.00;;;;;;5024102;28;20045;-63
2022/12/10 05:56:24;;;;;;;58.33;32.00;;;7.00;1.00;;;;;;5029780;28;20021;-63
2022/12/10 05:58:51;;;;;;;60.27;32.37;;;6.90;1.00;;;;;;5031837;28;20018;-63
2022/12/10 06:01:29;;;;;;;53.93;29.63;;;7.10;1.00;;;;;;5031753;28;20025;-63
2022/12/10 06:03:57;;;;;;;58.03;31.83;;;6.80;1.00;;;;;;5024444;28;20444;-63
2022/12/10 06:06:26;;;;;;;49.43;27.93;;;6.90;1.00;;;;;;5027516;28;20105;-63
2022/12/10 06:08:52;;;;;;;52.90;31.83;;;6.80;1.00;;;;;;5025776;28;20120;-63
2022/12/10 06:11:18;;;;;;;51.90;29.13;;;6.80;1.00;;;;;;5009641;28;20101;-63
2022/12/10 06:13:43;;;;;;;54.10;29.30;;;7.00;1.00;;;;;;5001289;28;20156;-63
2022/12/10 06:16:11;;;;;;;50.83;28.63;;;6.90;1.00;;;;;;5010562;28;20116;-63
2022/12/10 06:18:37;;;;;;;46.73;26.27;;;6.80;1.00;;;;;;5001976;28;20029;-63
2022/12/10 06:21:08;;;;;;;47.67;25.43;;;6.70;1.00;;;;;;5017992;28;20038;-63
2022/12/10 06:23:38;;;;;;;41.83;23.97;;;6.70;1.00;;;;;;5019392;28;20448;-63
2022/12/10 06:26:09;;;;;;;40.70;24.60;;;6.80;1.00;;;;;;5029946;28;20028;-63
2022/12/10 06:28:36;;;;;;;38.87;22.47;;;7.10;1.00;;;;;;5022034;28;20472;-63
2022/12/10 06:31:01;;;;;;;42.03;24.10;;;7.10;1.00;;;;;;5013289;28;20128;-63
2022/12/10 06:33:27;;;;;;;38.30;22.00;;;6.90;1.00;;;;;;5017499;28;20048;-63
2022/12/10 06:35:53;;;;;;;37.93;22.60;;;6.80;1.00;;;;;;5035115;28;20017;-63
2022/12/10 06:38:18;;;;;;;35.63;21.70;;;6.90;1.00;;;;;;5031833;28;20026;-63
2022/12/10 06:40:44;;;;;;;35.90;20.40;;;6.90;1.00;;;;;;5035196;28;20472;-63
2022/12/10 06:43:10;;;;;;;37.67;21.53;;;6.90;1.00;;;;;;5025720;28;20111;-63
2022/12/10 06:45:39;;;;;;;42.00;23.97;;;7.10;1.00;;;;;;5035306;28;20033;-63
2022/12/10 06:48:05;;;;;;;40.97;23.33;;;7.10;1.00;;;;;;5021234;28;20026;-63
2022/12/10 06:50:31;;;;;;;43.37;23.93;;;7.10;1.00;;;;;;5035051;28;20032;-63
2022/12/10 06:52:56;;;;;;;38.47;24.10;;;7.20;1.00;;;;;;5022532;28;20053;-63
2022/12/10 06:55:22;;;;;;;41.10;24.10;;;7.30;1.00;;;;;;5032898;28;20348;-63
2022/12/10 06:57:51;;;;;;;39.27;23.63;;;7.30;1.00;;;;;;5035023;28;20060;-63
2022/12/10 07:00:18;;;;;;;42.87;23.30;;;7.10;1.00;;;;;;5033468;28;20078;-63
2022/12/10 07:02:43;;;;;;;43.20;25.23;;;7.20;1.00;;;;;;5028194;28;20029;-63
2022/12/10 07:05:09;;;;;;;42.30;23.57;;;7.20;1.00;;;;;;5022055;28;20041;-63
2022/12/10 07:07:35;;;;;;;39.73;22.87;;;7.10;1.00;;;;;;5034990;28;20029;-63
2022/12/10 07:10:01;;;;;;;40.90;23.93;;;7.20;1.00;;;;;;5008450;28;20109;-63
2022/12/10 07:12:26;;;;;;;41.20;23.60;;;7.20;1.00;;;;;;5032619;28;20057;-63
2022/12/10 07:14:52;;;;;;;38.57;24.33;;;7.30;1.00;;;;;;5033311;28;20105;-62
2022/12/10 07:17:18;;;;;;;41.10;24.60;;;7.30;1.00;;;;;;5032368;28;20029;-61
2022/12/10 07:19:44;;;;;;;43.80;26.43;;;6.90;1.00;;;;;;5034597;28;20049;-62
2022/12/10 07:22:09;;;;;;;44.23;25.20;;;7.10;1.00;;;;;;5020818;28;20026;-62
2022/12/10 07:24:35;;;;;;;41.53;23.60;;;7.10;1.00;;;;;;5034183;28;20036;-61
2022/12/10 07:27:05;;;;;;;42.07;23.53;;;7.30;1.00;;;;;;5034434;28;20026;-62
2022/12/10 07:29:31;;;;;;;50.53;25.40;;;7.20;1.00;;;;;;5034508;28;20104;-61
2022/12/10 07:31:56;;;;;;;46.87;25.83;;;7.20;1.00;;;;;;5030196;28;20109;-61
2022/12/10 07:34:22;;;;;;;47.40;25.80;;;7.20;1.00;;;;;;5030156;28;20045;-62
2022/12/10 07:36:47;;;;;;;50.17;27.83;;;7.30;1.00;;;;;;5030859;28;20021;-62
2022/12/10 07:39:17;;;;;;;45.37;25.93;;;7.30;1.00;;;;;;5028308;28;20029;-62
2022/12/10 07:41:52;;;;;;;48.70;26.73;;;7.40;1.00;;;;;;5034167;28;20092;-62
2022/12/10 07:44:20;;;;;;;42.00;25.33;;;7.40;1.00;;;;;;5033501;28;20329;-62
2022/12/10 07:46:48;;;;;;;47.80;26.00;;;7.60;1.00;;;;;;5029491;28;20336;-61
2022/12/10 07:49:14;;;;;;;50.97;27.90;;;7.60;1.00;;;;;;5025488;28;20026;-62
2022/12/10 07:51:43;;;;;;;48.83;27.53;;;7.50;1.00;;;;;;5033735;28;20387;-62
2022/12/10 07:54:09;;;;;;;52.63;28.60;;;7.50;1.00;;;;;;5033552;28;20092;-62
2022/12/10 07:56:34;;;;;;;55.67;29.50;;;7.60;1.00;;;;;;5033809;28;20101;-62
2022/12/10 07:59:00;;;;;;;51.70;28.00;;;7.50;1.00;;;;;;5034039;28;20032;-62
2022/12/10 08:01:26;;;;;;;58.07;30.33;;;7.60;1.00;;;;;;5030768;28;20022;-63
2022/12/10 08:03:56;;;;;;;55.43;30.10;;;7.50;1.00;;;;;;5033747;28;20100;-62
2022/12/10 08:06:21;;;;;;;53.90;29.97;;;7.60;1.00;;;;;;5033702;28;20776;-62
2022/12/10 08:08:48;;;;;;;60.50;32.93;;;7.60;1.00;;;;;;5033500;28;20017;-61
2022/12/10 08:11:15;;;;;;;61.87;31.87;;;7.50;1.00;;;;;;5033555;28;20020;-62
2022/12/10 08:13:41;;;;;;;53.10;30.87;;;7.50;1.00;;;;;;5033406;28;20181;-62
2022/12/10 08:16:12;;;;;;;53.30;30.57;;;7.60;1.00;;;;;;5030005;28;20014;-62
2022/12/10 08:18:38;;;;;;;54.00;28.23;;;7.60;1.00;;;;;;5030231;28;20033;-62
2022/12/10 08:21:12;;;;;;;50.80;28.03;;;7.60;1.00;;;;;;5028692;28;20072;-62
2022/12/10 08:23:37;;;;;;;53.70;29.53;;;7.60;1.00;;;;;;5023826;28;20029;-61
2022/12/10 08:26:15;;;;;;;49.43;28.73;;;7.50;1.00;;;;;;5033473;28;20031;-61
2022/12/10 08:28:42;;;;;;;48.80;26.57;;;7.50;1.00;;;;;;5033343;28;20040;-62
2022/12/10 08:31:11;;;;;;;57.47;29.43;;;7.30;1.00;;;;;;5031090;28;20018;-62
2022/12/10 08:33:37;;;;;;;52.37;28.13;;;7.50;1.00;;;;;;5033133;28;20031;-61
2022/12/10 08:36:05;;;;;;;55.17;30.83;;;7.50;1.00;;;;;;5033199;28;20032;-62
2022/12/10 08:38:31;;;;;;;52.50;27.57;;;7.70;1.00;;;;;;5033259;28;20018;-62
2022/12/10 08:40:57;;;;;;;48.83;26.70;;;7.60;1.00;;;;;;5032974;28;20021;-61
2022/12/10 08:43:23;;;;;;;48.43;25.70;;;7.50;1.00;;;;;;5033026;28;20017;-62
2022/12/10 08:45:48;;;;;;;47.23;26.27;;;7.50;1.00;;;;;;5027775;28;20037;-62
2022/12/10 08:48:14;;;;;;;47.90;26.00;;;7.50;1.00;;;;;;5029942;28;20024;-62
2022/12/10 08:50:40;;;;;;;48.40;27.10;;;7.40;1.00;;;;;;5033063;28;20057;-62
2022/12/10 08:53:05;;;;;;;46.63;25.97;;;7.50;1.00;;;;;;5032404;28;20135;-60
2022/12/10 08:55:31;;;;;;;45.20;24.83;;;7.50;1.00;;;;;;5032647;28;20025;-62
2022/12/10 08:57:58;;;;;;;49.47;26.07;;;7.60;1.00;;;;;;5032585;28;20468;-62
2022/12/10 09:00:25;;;;;;;52.40;28.47;;;7.50;1.00;;;;;;5028988;28;20034;-61
2022/12/10 09:02:51;;;;;;;51.07;28.93;;;7.40;1.00;;;;;;5015637;28;20109;-62
2022/12/10 09:05:16;;;;;;;57.10;29.77;;;7.50;1.00;;;;;;5031064;28;20438;-62
2022/12/10 09:07:42;;;;;;;59.70;29.93;;;7.50;1.00;;;;;;5032423;28;20116;-62
2022/12/10 09:10:11;;;;;;;49.13;27.13;;;7.40;1.00;;;;;;5032481;28;20030;-62
2022/12/10 09:12:37;;;;;;;56.03;29.00;;;7.40;1.00;;;;;;5032654;28;20111;-62
2022/12/10 09:15:03;;;;;;;50.77;26.87;;;7.40;1.00;;;;;;5026699;28;20046;-61
2022/12/10 09:17:29;;;;;;;53.43;29.30;;;7.30;1.00;;;;;;5023298;28;20103;-61
2022/12/10 09:19:54;;;;;;;52.97;29.43;;;7.40;1.00;;;;;;5030692;28;20025;-62
2022/12/10 09:22:20;;;;;;;49.60;28.07;;;7.40;1.00;;;;;;5018416;28;20040;-62
2022/12/10 09:24:46;;;;;;;52.30;27.73;;;7.50;1.00;;;;;;5018039;28;20029;-62
2022/12/10 09:27:11;;;;;;;53.97;28.97;;;7.50;1.00;;;;;;5030834;28;20029;-62
2022/12/10 09:29:37;;;;;;;52.77;27.93;;;7.70;1.00;;;;;;5030795;28;20049;-62
2022/12/10 09:32:02;;;;;;;52.90;28.87;;;7.50;1.00;;;;;;5021539;28;20055;-63
2022/12/10 09:34:28;;;;;;;46.93;27.43;;;7.60;1.00;;;;;;5032291;28;20041;-62
2022/12/10 09:36:54;;;;;;;48.20;26.50;;;7.70;1.00;;;;;;5032010;28;20037;-62
2022/12/10 09:39:19;;;;;;;56.17;28.67;;;7.60;1.00;;;;;;5032007;28;20533;-62
2022/12/10 09:42:27;;;;;;;55.17;27.73;;;7.50;1.00;;;;;;5031844;28;20049;-62
2022/12/10 09:45:26;;;;;;;52.13;28.17;;;7.60;1.00;;;;;;5027803;28;20127;-62
2022/12/10 09:48:20;;;;;;;55.30;28.50;;;7.70;1.00;;;;;;5032007;28;20032;-62
2022/12/10 09:51:14;;;;;;;58.27;30.43;;;7.50;1.00;;;;;;5010955;28;20053;-62
2022/12/10 09:53:40;;;;;;;59.03;30.00;;;7.30;1.00;;;;;;5027599;28;20053;-62
2022/12/10 09:56:14;;;;;;;53.37;29.30;;;7.50;1.00;;;;;;5030398;28;20032;-63
2022/12/10 09:58:39;;;;;;;57.97;28.43;;;7.60;1.00;;;;;;5031659;28;20029;-62
2022/12/10 10:01:06;;;;;;;53.67;28.87;;;7.50;1.00;;;;;;5031712;28;20025;-62
2022/12/10 10:03:37;;;;;;;60.67;32.17;;;7.50;1.00;;;;;;5029984;28;20029;-62
2022/12/10 10:06:04;;;;;;;63.43;30.30;;;7.40;1.00;;;;;;5022165;28;20107;-62
2022/12/10 10:08:43;;;;;;;58.90;30.53;;;7.70;1.00;;;;;;5026932;28;20108;-62
2022/12/10 10:11:18;;;;;;;60.00;29.70;;;7.60;1.00;;;;;;5031536;28;20029;-62
2022/12/10 10:13:50;;;;;;;59.23;29.83;;;7.40;1.00;;;;;;5031743;28;20030;-62
2022/12/10 10:16:27;;;;;;;57.93;29.53;;;7.50;1.00;;;;;;5031788;28;20039;-63
2022/12/10 10:19:00;;;;;;;59.43;30.90;;;7.60;1.00;;;;;;5031521;28;20040;-62
2022/12/10 10:21:35;;;;;;;64.93;30.37;;;7.70;1.00;;;;;;5018547;28;20558;-62
2022/12/10 10:24:01;;;;;;;64.50;32.10;;;7.60;1.00;;;;;;5026343;28;20056;-62
2022/12/10 10:26:27;;;;;;;59.97;30.67;;;7.80;1.00;;;;;;5031753;28;20060;-62
2022/12/10 10:29:00;;;;;;;59.93;30.30;;;7.50;1.00;;;;;;5028046;28;20033;-62
2022/12/10 10:31:29;;;;;;;54.40;30.23;;;7.60;1.00;;;;;;5003910;28;20173;-62
2022/12/10 10:33:58;;;;;;;57.30;29.70;;;7.70;1.00;;;;;;5017761;28;20536;-62
2022/12/10 10:36:30;;;;;;;54.33;28.63;;;7.80;1.00;;;;;;5007518;28;20026;-62
2022/12/10 10:38:57;;;;;;;49.03;27.90;;;7.80;1.00;;;;;;5012496;28;20028;-63
2022/12/10 10:41:25;;;;;;;50.97;26.83;;;7.90;1.00;;;;;;5003383;28;20445;-63
2022/12/10 10:44:00;;;;;;;49.67;27.53;;;7.90;1.00;;;;;;5014346;28;20478;-63
2022/12/10 10:46:25;;;;;;;;;;;7.80;1.00;;;;;;5020901;28;20040;-62
2022/12/10 10:48:51;;;;;;;51.87;26.17;;;7.70;1.00;;;;;;5016266;28;19992;-62
2022/12/10 10:51:25;;;;;;;47.00;26.73;;;7.90;1.00;;;;;;5031263;28;20032;-62
2022/12/10 10:53:52;;;;;;;50.50;29.10;;;7.60;1.00;;;;;;5017032;28;20053;-62
2022/12/10 10:56:26;;;;;;;53.17;28.80;;;7.80;1.00;;;;;;5031172;28;20057;-62
2022/12/10 10:59:05;;;;;;;53.72;27.95;;;7.60;1.00;;;;;;5029863;28;20048;-62
2022/12/10 11:01:47;;;;;;;48.50;25.77;;;7.80;1.00;;;;;;5013576;28;20022;-62
2022/12/10 11:04:15;;;;;;;53.47;28.33;;;7.80;1.00;;;;;;5016190;28;20109;-62
2022/12/10 11:06:42;;;;;;;48.30;27.37;;;7.90;1.00;;;;;;5024103;28;20097;-62
2022/12/10 11:09:07;;;;;;;50.93;28.03;;;8.10;1.00;;;;;;5030729;28;20447;-62
2022/12/10 11:11:36;;;;;;;46.47;25.30;;;8.20;1.00;;;;;;5017808;28;20120;-62
2022/12/10 11:14:19;;;;;;;45.43;26.97;;;8.10;1.00;;;;;;5031029;28;20387;-62
2022/12/10 11:16:45;;;;;;;51.93;28.87;;;8.40;1.00;;;;;;5007279;28;20029;-62
2022/12/10 11:19:21;;;;;;;46.77;28.17;;;8.40;1.00;;;;;;5027242;28;20084;-62
2022/12/10 11:21:47;;;;;;;52.57;29.27;;;8.30;1.00;;;;;;5008175;28;20025;-62
2022/12/10 11:24:17;;;;;;;50.83;27.50;;;8.20;1.00;;;;;;5034856;28;20037;-62
2022/12/10 11:26:59;;;;;;;54.57;31.10;;;8.30;1.00;;;;;;5034517;28;20018;-62
2022/12/10 11:29:28;;;;;;;51.57;29.80;;;8.50;1.00;;;;;;5031974;28;20116;-62
2022/12/10 11:32:38;;;;;;;51.10;29.40;;;8.20;1.00;;;;;;5034220;28;20132;-62
2022/12/10 11:35:36;;;;;;;50.78;28.65;;;8.30;1.00;;;;;;5032933;28;20033;-62
2022/12/10 11:38:14;;;;;;;49.73;28.67;;;8.20;1.00;;;;;;5022376;28;20048;-62
2022/12/10 11:40:45;;;;;;;50.10;29.63;;;8.30;1.00;;;;;;5034645;28;20359;-62
2022/12/10 11:43:53;;;;;;;43.97;26.27;;;8.30;1.00;;;;;;5034139;28;20557;-62
2022/12/10 11:46:43;;;;;;;45.10;26.90;;;8.00;1.00;;;;;;5005394;28;20045;-62
2022/12/10 11:49:23;;;;;;;43.10;27.40;;;7.90;1.00;;;;;;5034607;28;20036;-62
2022/12/10 11:52:06;;;;;;;43.10;28.23;;;8.30;1.00;;;;;;5033905;28;20411;-62
2022/12/10 11:54:45;;;;;;;42.97;27.47;;;8.50;1.00;;;;;;5033763;28;20050;-62
2022/12/10 11:57:48;;;;;;;41.47;25.80;;;8.20;1.00;;;;;;5033986;28;20030;-62
2022/12/10 12:00:23;;;;;;;40.80;26.57;;;8.20;1.00;;;;;;5020921;28;20074;-62
2022/12/10 12:03:19;;;;;;;39.10;24.75;;;8.50;1.00;;;;;;5021379;28;20025;-62
2022/12/10 12:06:23;;;;;;;42.65;26.00;;;8.50;1.00;;;;;;5031321;28;20021;-62
2022/12/10 12:09:09;;;;;;;37.27;24.83;;;8.60;1.00;;;;;;5027662;28;20169;-62
2022/12/10 12:11:46;;;;;;;39.53;25.27;;;8.60;1.00;;;;;;5031573;28;20072;-62
2022/12/10 12:14:23;;;;;;;41.67;26.87;;;8.50;1.00;;;;;;5026228;28;20021;-62
2022/12/10 12:17:05;;;;;;;38.87;25.13;;;8.70;1.00;;;;;;5019607;28;20033;-62
2022/12/10 12:19:46;;;;;;;39.33;25.00;;;8.50;1.00;;;;;;5032544;28;20029;-62
2022/12/10 12:22:23;;;;;;;39.33;26.07;;;8.40;1.00;;;;;;5010127;28;20029;-62
2022/12/10 12:24:50;;;;;;;42.90;26.73;;;8.50;1.00;;;;;;5033651;28;20024;-62
2022/12/10 12:27:28;;;;;;;40.53;25.80;;;8.40;1.00;;;;;;5031599;28;20049;-62
2022/12/10 12:30:05;;;;;;;39.95;27.00;;;8.50;1.00;;;;;;5033146;28;20124;-62
2022/12/10 12:32:59;;;;;;;45.75;28.20;;;8.60;1.00;;;;;;5033198;28;20027;-62
2022/12/10 12:35:48;;;;;;;38.10;25.60;;;8.40;1.00;;;;;;5033001;28;20505;-63
2022/12/10 12:38:23;;;;;;;38.25;25.63;;;8.60;1.00;;;;;;5033565;28;20121;-62
2022/12/10 12:40:56;;;;;;;43.08;28.40;;;8.70;1.00;;;;;;5014953;28;20120;-62
2022/12/10 12:43:32;;;;;;;43.83;28.50;;;8.60;1.00;;;;;;5030450;28;20390;-62
2022/12/10 12:45:57;;;;;;;42.75;26.92;;;8.50;1.00;;;;;;5022095;28;20032;-63
2022/12/10 12:48:37;;;;;;;42.40;27.02;;;8.60;1.00;;;;;;5033064;28;20375;-63
2022/12/10 12:51:12;;;;;;;42.45;26.98;;;8.60;1.00;;;;;;5026273;28;20056;-63
2022/12/10 12:53:38;;;;;;;43.55;27.52;;;8.70;1.00;;;;;;4997212;28;20046;-63
2022/12/10 12:56:10;;;;;;;42.40;27.17;;;8.80;1.00;;;;;;5032909;28;20049;-62
2022/12/10 12:58:47;;;;;;;42.65;28.05;;;8.80;1.00;;;;;;5032688;28;20030;-62
2022/12/10 13:01:32;;;;;;;45.28;28.33;;;8.90;1.00;;;;;;5033054;28;20060;-62
2022/12/10 13:03:58;;;;;;;39.70;26.23;;;8.80;1.00;;;;;;5033053;28;20025;-63
2022/12/10 13:06:31;;;;;;;43.15;28.27;;;9.10;1.00;;;;;;5021777;28;20029;-62
2022/12/10 13:09:27;;;;;;;39.80;26.40;;;9.00;1.00;;;;;;5032915;28;20029;-62
2022/12/10 13:12:12;;;;;;;;;;;9.00;1.00;;;;;;5033010;28;20321;-62
2022/12/10 13:14:58;;;;;;;45.08;27.13;;;8.90;1.00;;;;;;5018559;28;19913;-62
2022/12/10 13:17:31;;;;;;;39.60;28.07;;;8.70;1.00;;;;;;5031003;28;20507;-63
2022/12/10 13:20:34;;;;;;;39.50;26.02;;;8.60;1.00;;;;;;5030820;28;20440;-62